sensor_id;sensor_type;location;lat;lon;timestamp;pressure;altitude;pressure_sealevel;temperature;humidity
46714;BME280;32445;51.376;10.874;2023-04-01T00:00:28;97532.09;;;11.52;59.53
46714;BME280;32445;51.376;10.874;2023-04-01T00:03:29;97523.28;;;11.54;59.79
46714;BME280;32445;51.376;10.874;2023-04-01T00:06:30;97523.47;;;11.51;59.78
46714;BME280;32445;51.376;10.874;2023-04-01T00:09:31;97529.50;;;11.52;59.46
46714;BME280;32445;51.376;10.874;2023-04-01T00:12:31;97533.75;;;11.53;59.42
46714;BME280;32445;51.376;10.874;2023-04-01T00:15:32;97525.25;;;11.51;59.33
46714;BME280;32445;51.376;10.874;2023-04-01T00:18:32;97525.97;;;11.53;59.90
46714;BME280;32445;51.376;10.874;2023-04-01T00:21:33;97527.75;;;11.52;59.71
46714;BME280;32445;51.376;10.874;2023-04-01T00:24:33;97529.69;;;11.49;59.59
46714;BME280;32445;51.376;10.874;2023-04-01T00:27:33;97525.16;;;11.52;59.38
46714;BME280;32445;51.376;10.874;2023-04-01T00:30:36;97527.66;;;11.54;59.83
46714;BME280;32445;51.376;10.874;2023-04-01T00:33:37;97529.59;;;11.50;59.42
46714;BME280;32445;51.376;10.874;2023-04-01T00:36:38;97524.50;;;11.49;59.42
46714;BME280;32445;51.376;10.874;2023-04-01T00:39:38;97523.66;;;11.48;59.39
46714;BME280;32445;51.376;10.874;2023-04-01T00:42:39;97518.56;;;11.47;59.36
46714;BME280;32445;51.376;10.874;2023-04-01T00:45:43;97515.97;;;11.47;59.82
46714;BME280;32445;51.376;10.874;2023-04-01T00:48:48;97519.59;;;11.44;59.48
46714;BME280;32445;51.376;10.874;2023-04-01T00:51:52;97517.09;;;11.42;59.84
46714;BME280;32445;51.376;10.874;2023-04-01T00:54:56;97520.59;;;11.41;59.88
46714;BME280;32445;51.376;10.874;2023-04-01T00:57:59;97514.28;;;11.46;59.70
46714;BME280;32445;51.376;10.874;2023-04-01T01:01:02;97520.41;;;11.45;59.02
46714;BME280;32445;51.376;10.874;2023-04-01T01:04:02;97514.69;;;11.39;59.41
46714;BME280;32445;51.376;10.874;2023-04-01T01:07:31;97537.19;;;11.39;59.50
46714;BME280;32445;51.376;10.874;2023-04-01T01:10:38;97513.09;;;11.37;59.15
46714;BME280;32445;51.376;10.874;2023-04-01T01:13:57;97514.13;;;11.34;59.60
46714;BME280;32445;51.376;10.874;2023-04-01T01:23:41;97502.22;;;11.30;59.49
46714;BME280;32445;51.376;10.874;2023-04-01T01:33:25;97503.19;;;11.29;59.28
46714;BME280;32445;51.376;10.874;2023-04-01T01:36:32;97504.09;;;11.28;59.37
46714;BME280;32445;51.376;10.874;2023-04-01T01:39:36;97500.69;;;11.28;59.53
46714;BME280;32445;51.376;10.874;2023-04-01T01:42:40;97498.25;;;11.24;59.38
46714;BME280;32445;51.376;10.874;2023-04-01T01:45:47;97503.44;;;11.24;59.46
46714;BME280;32445;51.376;10.874;2023-04-01T01:48:50;97494.00;;;11.23;60.00
46714;BME280;32445;51.376;10.874;2023-04-01T01:51:51;97505.31;;;11.22;60.04
46714;BME280;32445;51.376;10.874;2023-04-01T01:54:56;97503.72;;;11.20;60.09
46714;BME280;32445;51.376;10.874;2023-04-01T01:58:04;97512.44;;;11.19;59.96
46714;BME280;32445;51.376;10.874;2023-04-01T02:01:10;97504.66;;;11.19;59.97
46714;BME280;32445;51.376;10.874;2023-04-01T02:04:13;97500.41;;;11.18;60.12
46714;BME280;32445;51.376;10.874;2023-04-01T02:07:21;97506.41;;;11.18;60.48
46714;BME280;32445;51.376;10.874;2023-04-01T02:10:25;97495.13;;;11.19;59.95
46714;BME280;32445;51.376;10.874;2023-04-01T02:13:48;97498.72;;;11.17;59.75
46714;BME280;32445;51.376;10.874;2023-04-01T02:16:57;97495.03;;;11.21;59.63
46714;BME280;32445;51.376;10.874;2023-04-01T02:20:09;97511.53;;;11.20;60.18
46714;BME280;32445;51.376;10.874;2023-04-01T02:23:12;97499.56;;;11.17;60.19
46714;BME280;32445;51.376;10.874;2023-04-01T02:26:13;97505.84;;;11.13;60.23
46714;BME280;32445;51.376;10.874;2023-04-01T02:29:15;97495.47;;;11.13;60.64
46714;BME280;32445;51.376;10.874;2023-04-01T02:32:17;97504.13;;;11.14;60.69
46714;BME280;32445;51.376;10.874;2023-04-01T02:35:19;97509.41;;;11.12;60.77
46714;BME280;32445;51.376;10.874;2023-04-01T02:38:19;97512.91;;;11.11;61.03
46714;BME280;32445;51.376;10.874;2023-04-01T02:41:20;97509.59;;;11.09;60.79
46714;BME280;32445;51.376;10.874;2023-04-01T02:44:21;97516.34;;;11.12;60.87
46714;BME280;32445;51.376;10.874;2023-04-01T02:47:21;97514.59;;;11.12;61.00
46714;BME280;32445;51.376;10.874;2023-04-01T02:50:21;97517.09;;;11.14;61.05
46714;BME280;32445;51.376;10.874;2023-04-01T02:53:22;97507.09;;;11.07;60.59
46714;BME280;32445;51.376;10.874;2023-04-01T02:56:22;97513.09;;;11.08;61.00
46714;BME280;32445;51.376;10.874;2023-04-01T02:59:23;97526.91;;;11.08;60.83
46714;BME280;32445;51.376;10.874;2023-04-01T03:02:23;97527.84;;;11.07;61.13
46714;BME280;32445;51.376;10.874;2023-04-01T03:05:23;97529.59;;;11.07;60.79
46714;BME280;32445;51.376;10.874;2023-04-01T03:08:24;97542.88;;;11.02;60.98
46714;BME280;32445;51.376;10.874;2023-04-01T03:11:24;97528.19;;;11.01;61.30
46714;BME280;32445;51.376;10.874;2023-04-01T03:14:26;97534.41;;;10.99;60.84
46714;BME280;32445;51.376;10.874;2023-04-01T03:17:26;97540.53;;;10.98;61.18
46714;BME280;32445;51.376;10.874;2023-04-01T03:20:26;97529.59;;;10.93;61.07
46714;BME280;32445;51.376;10.874;2023-04-01T03:23:27;97535.59;;;10.93;60.94
46714;BME280;32445;51.376;10.874;2023-04-01T03:26:27;97545.94;;;10.95;60.96
46714;BME280;32445;51.376;10.874;2023-04-01T03:29:28;97528.84;;;10.90;61.11
46714;BME280;32445;51.376;10.874;2023-04-01T03:32:28;97531.53;;;10.89;61.49
46714;BME280;32445;51.376;10.874;2023-04-01T03:35:28;97533.00;;;10.93;61.39
46714;BME280;32445;51.376;10.874;2023-04-01T03:38:29;97538.88;;;10.97;60.96
46714;BME280;32445;51.376;10.874;2023-04-01T03:41:29;97531.25;;;10.94;61.57
46714;BME280;32445;51.376;10.874;2023-04-01T03:44:31;97548.59;;;10.93;61.21
46714;BME280;32445;51.376;10.874;2023-04-01T03:47:32;97536.47;;;10.94;60.71
46714;BME280;32445;51.376;10.874;2023-04-01T03:50:34;97541.66;;;10.94;61.01
46714;BME280;32445;51.376;10.874;2023-04-01T03:53:34;97545.84;;;10.96;61.19
46714;BME280;32445;51.376;10.874;2023-04-01T03:56:35;97533.78;;;10.95;60.87
46714;BME280;32445;51.376;10.874;2023-04-01T03:59:36;97544.25;;;10.94;61.05
46714;BME280;32445;51.376;10.874;2023-04-01T04:02:36;97548.75;;;10.90;61.45
46714;BME280;32445;51.376;10.874;2023-04-01T04:05:36;97548.84;;;10.88;61.33
46714;BME280;32445;51.376;10.874;2023-04-01T04:08:37;97541.06;;;10.88;61.47
46714;BME280;32445;51.376;10.874;2023-04-01T04:11:37;97552.41;;;10.87;61.58
46714;BME280;32445;51.376;10.874;2023-04-01T04:14:37;97557.59;;;10.87;61.09
46714;BME280;32445;51.376;10.874;2023-04-01T04:17:38;97557.84;;;10.83;61.18
46714;BME280;32445;51.376;10.874;2023-04-01T04:20:44;97546.81;;;10.79;61.09
46714;BME280;32445;51.376;10.874;2023-04-01T04:23:45;97556.34;;;10.79;61.14
46714;BME280;32445;51.376;10.874;2023-04-01T04:26:46;97547.81;;;10.77;61.59
46714;BME280;32445;51.376;10.874;2023-04-01T04:29:46;97549.69;;;10.75;61.56
46714;BME280;32445;51.376;10.874;2023-04-01T04:32:46;97550.50;;;10.75;61.51
46714;BME280;32445;51.376;10.874;2023-04-01T04:35:47;97555.78;;;10.73;61.40
46714;BME280;32445;51.376;10.874;2023-04-01T04:38:47;97562.66;;;10.75;61.20
46714;BME280;32445;51.376;10.874;2023-04-01T04:41:48;97558.22;;;10.77;61.58
46714;BME280;32445;51.376;10.874;2023-04-01T04:44:48;97554.94;;;10.73;61.15
46714;BME280;32445;51.376;10.874;2023-04-01T04:47:49;97561.06;;;10.72;61.44
46714;BME280;32445;51.376;10.874;2023-04-01T04:50:50;97560.50;;;10.67;61.43
46714;BME280;32445;51.376;10.874;2023-04-01T04:53:51;97560.41;;;10.68;61.66
46714;BME280;32445;51.376;10.874;2023-04-01T04:56:52;97557.91;;;10.67;61.07
46714;BME280;32445;51.376;10.874;2023-04-01T04:59:52;97557.72;;;10.70;61.64
46714;BME280;32445;51.376;10.874;2023-04-01T05:02:53;97558.66;;;10.69;61.45
46714;BME280;32445;51.376;10.874;2023-04-01T05:05:53;97558.56;;;10.70;61.28
46714;BME280;32445;51.376;10.874;2023-04-01T05:08:54;97560.97;;;10.73;61.01
46714;BME280;32445;51.376;10.874;2023-04-01T05:11:54;97568.59;;;10.77;60.90
46714;BME280;32445;51.376;10.874;2023-04-01T05:14:54;97564.22;;;10.77;61.41
46714;BME280;32445;51.376;10.874;2023-04-01T05:17:55;97572.84;;;10.78;60.96
46714;BME280;32445;51.376;10.874;2023-04-01T05:20:55;97576.28;;;10.78;60.59
46714;BME280;32445;51.376;10.874;2023-04-01T05:23:55;97583.47;;;10.73;60.87
46714;BME280;32445;51.376;10.874;2023-04-01T05:26:56;97568.28;;;10.67;60.99
46714;BME280;32445;51.376;10.874;2023-04-01T05:29:57;97568.28;;;10.67;61.24
46714;BME280;32445;51.376;10.874;2023-04-01T05:32:58;97568.09;;;10.70;60.62
46714;BME280;32445;51.376;10.874;2023-04-01T05:36:06;97571.53;;;10.70;61.39
46714;BME280;32445;51.376;10.874;2023-04-01T05:39:08;97576.66;;;10.72;60.91
46714;BME280;32445;51.376;10.874;2023-04-01T05:42:08;97568.09;;;10.70;60.48
46714;BME280;32445;51.376;10.874;2023-04-01T05:45:09;97575.06;;;10.69;60.37
46714;BME280;32445;51.376;10.874;2023-04-01T05:48:10;97579.47;;;10.67;60.92
46714;BME280;32445;51.376;10.874;2023-04-01T05:51:14;97578.66;;;10.67;61.05
46714;BME280;32445;51.376;10.874;2023-04-01T05:54:14;97576.81;;;10.69;60.85
46714;BME280;32445;51.376;10.874;2023-04-01T05:57:15;97575.88;;;10.70;60.65
46714;BME280;32445;51.376;10.874;2023-04-01T06:00:16;97579.56;;;10.66;60.85
46714;BME280;32445;51.376;10.874;2023-04-01T06:03:17;97584.66;;;10.67;60.90
46714;BME280;32445;51.376;10.874;2023-04-01T06:06:26;97577.66;;;10.69;60.69
46714;BME280;32445;51.376;10.874;2023-04-01T06:09:29;97585.63;;;10.66;60.34
46714;BME280;32445;51.376;10.874;2023-04-01T06:29:47;97588.53;;;10.76;60.49
46714;BME280;32445;51.376;10.874;2023-04-01T06:33:22;97600.56;;;10.77;59.91
46714;BME280;32445;51.376;10.874;2023-04-01T06:46:36;97611.81;;;10.92;59.79
46714;BME280;32445;51.376;10.874;2023-04-01T06:56:24;97601.06;;;10.98;59.18
46714;BME280;32445;51.376;10.874;2023-04-01T06:59:32;97614.53;;;11.05;59.14
46714;BME280;32445;51.376;10.874;2023-04-01T07:02:39;97614.53;;;11.05;58.96
46714;BME280;32445;51.376;10.874;2023-04-01T07:05:42;97615.28;;;11.07;59.19
46714;BME280;32445;51.376;10.874;2023-04-01T07:08:43;97616.88;;;11.10;59.52
46714;BME280;32445;51.376;10.874;2023-04-01T07:11:45;97619.28;;;11.13;59.50
46714;BME280;32445;51.376;10.874;2023-04-01T07:14:47;97625.97;;;11.17;59.07
46714;BME280;32445;51.376;10.874;2023-04-01T07:18:04;97639.88;;;11.16;59.08
46714;BME280;32445;51.376;10.874;2023-04-01T07:21:15;97621.69;;;11.16;58.81
46714;BME280;32445;51.376;10.874;2023-04-01T07:24:26;97632.66;;;11.21;58.83
46714;BME280;32445;51.376;10.874;2023-04-01T07:27:27;97623.94;;;11.22;58.77
46714;BME280;32445;51.376;10.874;2023-04-01T07:30:37;97627.56;;;11.19;58.70
46714;BME280;32445;51.376;10.874;2023-04-01T07:34:04;97628.56;;;11.17;59.06
46714;BME280;32445;51.376;10.874;2023-04-01T07:40:32;97621.81;;;11.29;59.42
46714;BME280;32445;51.376;10.874;2023-04-01T07:46:59;97641.56;;;11.31;59.56
46714;BME280;32445;51.376;10.874;2023-04-01T08:06:33;97639.38;;;11.39;59.16
46714;BME280;32445;51.376;10.874;2023-04-01T08:09:44;97650.22;;;11.46;59.29
46714;BME280;32445;51.376;10.874;2023-04-01T08:13:05;97640.75;;;11.45;59.66
46714;BME280;32445;51.376;10.874;2023-04-01T08:22:44;97653.75;;;11.59;58.92
46714;BME280;32445;51.376;10.874;2023-04-01T08:29:33;97656.47;;;11.58;58.87
46714;BME280;32445;51.376;10.874;2023-04-01T08:32:39;97655.25;;;11.64;58.80
46714;BME280;32445;51.376;10.874;2023-04-01T08:48:56;97657.19;;;11.89;58.22
46714;BME280;32445;51.376;10.874;2023-04-01T09:02:46;97661.97;;;12.11;58.07
46714;BME280;32445;51.376;10.874;2023-04-01T09:07:09;97662.69;;;12.13;58.41
46714;BME280;32445;51.376;10.874;2023-04-01T09:16:30;97663.94;;;12.35;58.02
46714;BME280;32445;51.376;10.874;2023-04-01T09:36:45;97678.94;;;12.58;57.12
46714;BME280;32445;51.376;10.874;2023-04-01T09:43:37;97683.56;;;12.68;57.25
46714;BME280;32445;51.376;10.874;2023-04-01T09:50:35;97691.41;;;12.80;57.14
46714;BME280;32445;51.376;10.874;2023-04-01T09:53:48;97699.31;;;12.79;57.01
46714;BME280;32445;51.376;10.874;2023-04-01T09:57:27;97704.72;;;12.76;56.83
46714;BME280;32445;51.376;10.874;2023-04-01T10:04:17;97704.34;;;12.82;57.13
46714;BME280;32445;51.376;10.874;2023-04-01T10:07:42;97700.59;;;12.86;56.89
46714;BME280;32445;51.376;10.874;2023-04-01T10:18:12;97704.94;;;13.00;56.96
46714;BME280;32445;51.376;10.874;2023-04-01T10:28:12;97708.03;;;12.92;57.29
46714;BME280;32445;51.376;10.874;2023-04-01T11:05:34;97699.97;;;13.89;55.64
46714;BME280;32445;51.376;10.874;2023-04-01T11:23:21;97708.00;;;13.98;54.23
46714;BME280;32445;51.376;10.874;2023-04-01T11:33:03;97716.22;;;13.92;53.91
46714;BME280;32445;51.376;10.874;2023-04-01T11:36:11;97713.41;;;13.95;54.73
46714;BME280;32445;51.376;10.874;2023-04-01T11:39:24;97710.41;;;14.01;54.60
46714;BME280;32445;51.376;10.874;2023-04-01T12:09:35;97725.53;;;14.59;53.16
46714;BME280;32445;51.376;10.874;2023-04-01T12:12:48;97726.91;;;14.65;53.13
46714;BME280;32445;51.376;10.874;2023-04-01T12:16:08;97735.56;;;14.65;52.00
46714;BME280;32445;51.376;10.874;2023-04-01T12:19:39;97732.00;;;14.66;52.67
46714;BME280;32445;51.376;10.874;2023-04-01T12:26:16;97742.28;;;14.81;52.70
46714;BME280;32445;51.376;10.874;2023-04-01T12:42:55;97736.25;;;15.04;51.42
46714;BME280;32445;51.376;10.874;2023-04-01T12:56:53;97742.78;;;15.34;51.61
46714;BME280;32445;51.376;10.874;2023-04-01T13:17:46;97759.16;;;15.61;50.18
46714;BME280;32445;51.376;10.874;2023-04-01T13:24:28;97760.44;;;15.55;50.48
46714;BME280;32445;51.376;10.874;2023-04-01T13:27:36;97767.34;;;15.56;50.64
46714;BME280;32445;51.376;10.874;2023-04-01T13:30:47;97767.91;;;15.48;50.54
46714;BME280;32445;51.376;10.874;2023-04-01T13:34:18;97761.81;;;15.36;50.28
46714;BME280;32445;51.376;10.874;2023-04-01T13:37:27;97769.66;;;15.36;50.77
46714;BME280;32445;51.376;10.874;2023-04-01T13:40:41;97776.75;;;15.34;50.69
46714;BME280;32445;51.376;10.874;2023-04-01T13:44:02;97770.13;;;15.30;50.77
46714;BME280;32445;51.376;10.874;2023-04-01T13:47:23;97774.25;;;15.33;50.58
46714;BME280;32445;51.376;10.874;2023-04-01T13:50:52;97777.72;;;15.33;50.80
46714;BME280;32445;51.376;10.874;2023-04-01T14:00:48;97788.28;;;15.08;51.27
46714;BME280;32445;51.376;10.874;2023-04-01T14:07:55;97792.28;;;15.00;51.87
46714;BME280;32445;51.376;10.874;2023-04-01T14:11:12;97796.94;;;15.08;51.84
46714;BME280;32445;51.376;10.874;2023-04-01T14:17:40;97797.84;;;15.20;52.05
46714;BME280;32445;51.376;10.874;2023-04-01T14:27:41;97800.09;;;15.13;52.07
46714;BME280;32445;51.376;10.874;2023-04-01T14:30:50;97803.81;;;15.22;51.96
46714;BME280;32445;51.376;10.874;2023-04-01T14:47:22;97806.84;;;15.40;52.40
46714;BME280;32445;51.376;10.874;2023-04-01T14:50:29;97809.25;;;15.43;52.56
46714;BME280;32445;51.376;10.874;2023-04-01T14:53:34;97814.50;;;15.43;52.53
46714;BME280;32445;51.376;10.874;2023-04-01T14:56:49;97811.13;;;15.41;52.09
46714;BME280;32445;51.376;10.874;2023-04-01T15:00:36;97811.97;;;15.42;52.18
46714;BME280;32445;51.376;10.874;2023-04-01T15:13:25;97823.44;;;15.52;52.33
46714;BME280;32445;51.376;10.874;2023-04-01T15:16:54;97826.88;;;15.52;52.61
46714;BME280;32445;51.376;10.874;2023-04-01T15:23:37;97843.84;;;15.47;52.00
46714;BME280;32445;51.376;10.874;2023-04-01T15:30:17;97844.81;;;15.09;52.27
46714;BME280;32445;51.376;10.874;2023-04-01T15:42:53;97868.25;;;15.10;52.71
46714;BME280;32445;51.376;10.874;2023-04-01T15:59:29;97884.88;;;15.09;53.46
46714;BME280;32445;51.376;10.874;2023-04-01T16:09:13;97890.31;;;15.06;53.25
46714;BME280;32445;51.376;10.874;2023-04-01T16:21:54;97911.50;;;15.01;53.32
46714;BME280;32445;51.376;10.874;2023-04-01T16:25:26;97910.91;;;14.98;53.51
46714;BME280;32445;51.376;10.874;2023-04-01T16:31:53;97919.56;;;14.98;52.92
46714;BME280;32445;51.376;10.874;2023-04-01T16:38:43;97919.06;;;14.93;53.16
46714;BME280;32445;51.376;10.874;2023-04-01T16:45:06;97933.06;;;14.92;53.13
46714;BME280;32445;51.376;10.874;2023-04-01T16:48:18;97939.44;;;14.88;53.56
46714;BME280;32445;51.376;10.874;2023-04-01T16:51:20;97943.09;;;14.85;53.86
46714;BME280;32445;51.376;10.874;2023-04-01T16:57:43;97954.19;;;14.76;54.11
46714;BME280;32445;51.376;10.874;2023-04-01T17:00:55;97966.50;;;14.74;54.09
46714;BME280;32445;51.376;10.874;2023-04-01T17:04:17;97966.81;;;14.69;54.58
46714;BME280;32445;51.376;10.874;2023-04-01T17:10:53;97972.34;;;14.65;53.93
46714;BME280;32445;51.376;10.874;2023-04-01T17:20:42;97985.91;;;14.57;54.10
46714;BME280;32445;51.376;10.874;2023-04-01T17:24:00;97989.66;;;14.53;54.12
46714;BME280;32445;51.376;10.874;2023-04-01T17:30:50;98003.09;;;14.47;54.12
46714;BME280;32445;51.376;10.874;2023-04-01T17:34:03;98007.69;;;14.43;54.57
46714;BME280;32445;51.376;10.874;2023-04-01T18:00:46;98050.22;;;14.18;54.76
46714;BME280;32445;51.376;10.874;2023-04-01T18:10:54;98059.56;;;14.08;54.82
46714;BME280;32445;51.376;10.874;2023-04-01T18:14:18;98061.63;;;14.02;54.89
46714;BME280;32445;51.376;10.874;2023-04-01T18:18:05;98067.03;;;13.99;54.75
46714;BME280;32445;51.376;10.874;2023-04-01T18:24:36;98082.97;;;13.95;54.55
46714;BME280;32445;51.376;10.874;2023-04-01T18:28:39;98083.28;;;13.90;55.40
46714;BME280;32445;51.376;10.874;2023-04-01T18:31:38;98089.41;;;13.89;54.75
46714;BME280;32445;51.376;10.874;2023-04-01T18:41:14;98112.53;;;13.81;55.04
46714;BME280;32445;51.376;10.874;2023-04-01T18:47:29;98106.78;;;13.76;54.90
46714;BME280;32445;51.376;10.874;2023-04-01T18:50:55;98125.22;;;13.73;54.62
46714;BME280;32445;51.376;10.874;2023-04-01T18:54:21;98128.84;;;13.70;54.84
46714;BME280;32445;51.376;10.874;2023-04-01T18:57:24;98128.09;;;13.68;54.68
46714;BME280;32445;51.376;10.874;2023-04-01T19:00:33;98135.28;;;13.64;55.06
46714;BME280;32445;51.376;10.874;2023-04-01T19:07:49;98146.09;;;13.58;55.58
46714;BME280;32445;51.376;10.874;2023-04-01T19:14:19;98154.91;;;13.56;55.11
46714;BME280;32445;51.376;10.874;2023-04-01T19:28:17;98173.78;;;13.45;55.49
46714;BME280;32445;51.376;10.874;2023-04-01T19:35:07;98181.78;;;13.42;55.20
46714;BME280;32445;51.376;10.874;2023-04-01T19:38:41;98191.50;;;13.40;55.88
46714;BME280;32445;51.376;10.874;2023-04-01T19:51:52;98206.44;;;13.36;55.46
46714;BME280;32445;51.376;10.874;2023-04-01T19:58:32;98217.94;;;13.32;55.96
46714;BME280;32445;51.376;10.874;2023-04-01T20:04:45;98237.09;;;13.31;56.45
46714;BME280;32445;51.376;10.874;2023-04-01T20:07:52;98234.59;;;13.29;56.16
46714;BME280;32445;51.376;10.874;2023-04-01T20:11:27;98240.94;;;13.25;56.47
46714;BME280;32445;51.376;10.874;2023-04-01T20:14:51;98257.41;;;13.26;56.28
46714;BME280;32445;51.376;10.874;2023-04-01T20:17:54;98256.47;;;13.27;56.00
46714;BME280;32445;51.376;10.874;2023-04-01T20:21:05;98260.09;;;13.24;55.92
46714;BME280;32445;51.376;10.874;2023-04-01T20:24:43;98268.91;;;13.22;56.06
46714;BME280;32445;51.376;10.874;2023-04-01T20:28:09;98276.00;;;13.20;56.54
46714;BME280;32445;51.376;10.874;2023-04-01T20:37:39;98299.03;;;13.11;56.28
46714;BME280;32445;51.376;10.874;2023-04-01T20:41:01;98311.53;;;13.05;56.43
46714;BME280;32445;51.376;10.874;2023-04-01T20:51:06;98332.56;;;12.86;56.61
46714;BME280;32445;51.376;10.874;2023-04-01T20:54:30;98345.66;;;12.84;56.00
46714;BME280;32445;51.376;10.874;2023-04-01T21:01:15;98352.28;;;12.74;55.91
46714;BME280;32445;51.376;10.874;2023-04-01T21:04:28;98354.13;;;12.72;55.68
46714;BME280;32445;51.376;10.874;2023-04-01T22:04:51;98484.75;;;11.73;55.48
46714;BME280;32445;51.376;10.874;2023-04-01T22:11:23;98495.84;;;11.77;54.93
46714;BME280;32445;51.376;10.874;2023-04-01T22:14:33;98507.94;;;11.78;55.26
46714;BME280;32445;51.376;10.874;2023-04-01T22:18:02;98516.78;;;11.74;55.08
46714;BME280;32445;51.376;10.874;2023-04-01T22:21:12;98518.69;;;11.70;55.16
46714;BME280;32445;51.376;10.874;2023-04-01T22:30:51;98533.72;;;11.64;55.15
46714;BME280;32445;51.376;10.874;2023-04-01T22:34:01;98543.50;;;11.58;55.15
46714;BME280;32445;51.376;10.874;2023-04-01T22:40:25;98554.44;;;11.46;54.85
46714;BME280;32445;51.376;10.874;2023-04-01T22:50:01;98567.03;;;11.16;55.04
46714;BME280;32445;51.376;10.874;2023-04-01T22:56:27;98573.19;;;11.13;54.82
46714;BME280;32445;51.376;10.874;2023-04-01T22:59:41;98587.94;;;11.13;55.17
46714;BME280;32445;51.376;10.874;2023-04-01T23:03:08;98596.63;;;11.12;55.35
46714;BME280;32445;51.376;10.874;2023-04-01T23:06:35;98602.94;;;11.06;55.14
46714;BME280;32445;51.376;10.874;2023-04-01T23:09:38;98612.41;;;11.07;54.42
46714;BME280;32445;51.376;10.874;2023-04-01T23:12:39;98609.13;;;11.03;54.32
46714;BME280;32445;51.376;10.874;2023-04-01T23:15:41;98612.56;;;11.04;54.71
46714;BME280;32445;51.376;10.874;2023-04-01T23:22:16;98633.72;;;10.95;54.78
46714;BME280;32445;51.376;10.874;2023-04-01T23:28:53;98648.72;;;10.88;54.77
46714;BME280;32445;51.376;10.874;2023-04-01T23:31:59;98658.25;;;10.87;54.45
46714;BME280;32445;51.376;10.874;2023-04-01T23:35:00;98661.75;;;10.86;54.48
46714;BME280;32445;51.376;10.874;2023-04-01T23:38:00;98667.13;;;10.82;53.80
46714;BME280;32445;51.376;10.874;2023-04-01T23:41:02;98674.19;;;10.78;54.25
46714;BME280;32445;51.376;10.874;2023-04-01T23:44:04;98675.94;;;10.78;54.12
46714;BME280;32445;51.376;10.874;2023-04-01T23:47:06;98676.31;;;10.68;54.10
46714;BME280;32445;51.376;10.874;2023-04-01T23:50:16;98687.00;;;10.61;54.48
46714;BME280;32445;51.376;10.874;2023-04-01T23:53:24;98695.69;;;10.60;53.96
46714;BME280;32445;51.376;10.874;2023-04-01T23:56:34;98702.69;;;10.58;54.45
46714;BME280;32445;51.376;10.874;2023-04-01T23:59:37;98707.03;;;10.57;54.33
